Time;durP1;ratioP1;P1;durP2;ratioP2;P2;SDS_P1;SDS_P2;PMS_P1;PMS_P2;Temp;Humidity;BMP_temperature;BMP_pressure;BME280_temperature;BME280_humidity;BME280_pressure;Samples;Min_cycle;Max_cycle;Signal;HPM_P1;HPM_P2
2022/04/09 00:01:26;;;;;;;6.57;3.28;;;;;;;20.25;46.80;99376.78;4916770;29;20071;-74
2022/04/09 00:03:55;;;;;;;6.43;4.32;;;;;;;20.25;46.83;99376.78;4909132;29;20052;-75
2022/04/09 00:06:23;;;;;;;5.82;3.20;;;;;;;20.25;46.84;99366.91;4896532;29;20040;-74
2022/04/09 00:08:50;;;;;;;5.00;3.17;;;;;;;20.25;46.67;99366.03;4897502;29;20059;-75
2022/04/09 00:11:18;;;;;;;4.72;2.90;;;;;;;20.24;46.82;99362.53;4897181;29;20056;-74
2022/04/09 00:13:45;;;;;;;6.38;2.75;;;;;;;20.24;46.83;99359.84;4896581;29;20058;-75
2022/04/09 00:16:13;;;;;;;5.28;3.60;;;;;;;20.23;46.88;99352.78;4897491;29;20060;-74
2022/04/09 00:18:43;;;;;;;5.47;2.97;;;;;;;20.24;46.57;99357.16;4896928;29;20117;-75
2022/04/09 00:21:11;;;;;;;5.22;2.67;;;;;;;20.24;46.57;99359.84;4897481;29;20049;-75
2022/04/09 00:23:38;;;;;;;4.70;2.85;;;;;;;20.23;46.55;99350.09;4897374;29;20060;-75
2022/04/09 00:26:05;;;;;;;6.82;2.72;;;;;;;20.23;46.58;99355.47;4897077;29;20045;-75
2022/04/09 00:28:33;;;;;;;6.63;3.53;;;;;;;20.24;46.48;99342.88;4896906;29;20057;-74
2022/04/09 00:31:01;;;;;;;4.85;2.50;;;;;;;20.24;46.60;99350.94;4896106;29;20049;-75
2022/04/09 00:33:28;;;;;;;4.95;2.85;;;;;;;20.24;46.72;99350.94;4896504;28;20056;-75
2022/04/09 00:35:55;;;;;;;5.00;3.05;;;;;;;20.24;46.59;99353.63;4861057;29;20053;-75
2022/04/09 00:38:25;;;;;;;4.82;2.65;;;;;;;20.24;46.68;99361.69;4877076;29;20045;-75
2022/04/09 00:40:52;;;;;;;5.90;3.10;;;;;;;20.23;46.49;99355.47;4876424;29;20053;-75
2022/04/09 00:43:19;;;;;;;5.45;2.88;;;;;;;20.23;46.50;99355.47;4877757;28;20520;-74
2022/04/09 00:45:48;;;;;;;4.35;3.00;;;;;;;20.25;46.47;99352.59;4876610;29;20064;-75
2022/04/09 00:48:20;;;;;;;4.55;2.65;;;;;;;20.23;46.55;99352.78;4877837;29;20060;-75
2022/04/09 00:50:48;;;;;;;5.70;2.65;;;;;;;20.23;46.91;99339.34;4876111;29;20412;-75
2022/04/09 00:53:16;;;;;;;5.05;2.50;;;;;;;20.23;46.63;99351.97;4878274;29;20044;-75
2022/04/09 00:58:30;;;;;;;4.15;2.45;;;;;;;20.22;46.51;99335.00;4876155;29;20061;-75
2022/04/09 01:00:58;;;;;;;3.88;2.28;;;;;;;20.23;46.51;99346.59;4876417;29;20056;-75
2022/04/09 01:03:27;;;;;;;4.18;2.30;;;;;;;20.23;46.71;99325.91;4860953;29;20053;-74
2022/04/09 01:05:55;;;;;;;5.95;2.60;;;;;;;20.23;46.61;99331.28;4885930;28;20400;-75
2022/04/09 01:08:23;;;;;;;4.97;2.47;;;;;;;20.23;46.53;99325.09;4895261;29;20053;-75
2022/04/09 01:10:51;;;;;;;4.35;2.40;;;;;;;20.22;46.71;99329.63;4895077;29;20064;-75
2022/04/09 01:13:21;;;;;;;3.78;2.17;;;;;;;20.23;46.61;99325.91;4878344;29;20052;-75
2022/04/09 01:15:49;;;;;;;4.05;2.20;;;;;;;20.23;46.73;99315.16;4878810;29;20060;-75
2022/04/09 01:18:18;;;;;;;3.35;2.50;;;;;;;20.23;46.75;99306.28;4879524;28;20061;-74
2022/04/09 01:21:00;;;;;;;4.90;2.50;;;;;;;20.23;46.70;99295.53;4894773;28;20063;-75
2022/04/09 01:23:28;;;;;;;10.75;2.92;;;;;;;20.23;46.47;99296.34;4879480;29;20048;-75
2022/04/09 01:25:59;;;;;;;3.88;2.28;;;;;;;20.23;46.64;99290.16;4894769;29;20048;-75
2022/04/09 01:28:28;;;;;;;2.95;2.03;;;;;;;20.23;46.64;99287.47;4894939;28;20087;-74
2022/04/09 01:30:55;;;;;;;4.30;2.33;;;;;;;20.23;46.55;99296.34;4894516;29;20057;-75
2022/04/09 01:33:23;;;;;;;5.32;2.15;;;;;;;20.23;46.56;99298.22;4895846;29;20052;-75
2022/04/09 01:35:52;;;;;;;3.95;2.17;;;;;;;20.22;46.62;99294.69;4894728;29;20063;-75
2022/04/09 01:38:20;;;;;;;5.13;2.38;;;;;;;20.24;46.66;99300.72;4878598;29;20057;-74
2022/04/09 01:40:47;;;;;;;4.38;2.22;;;;;;;20.24;46.72;99300.72;4895195;29;20051;-75
2022/04/09 01:43:16;;;;;;;3.92;2.17;;;;;;;20.24;46.77;99297.19;4894332;29;20052;-76
2022/04/09 01:45:44;;;;;;;4.72;2.33;;;;;;;20.24;46.69;99289.97;4863329;29;20072;-75
2022/04/09 01:48:18;;;;;;;4.82;2.33;;;;;;;20.25;46.69;99286.28;4894201;29;20057;-75
2022/04/09 01:50:46;;;;;;;5.13;2.10;;;;;;;20.23;46.84;99285.59;4894826;29;20049;-75
2022/04/09 01:53:14;;;;;;;4.85;2.42;;;;;;;20.24;46.68;99299.88;4893979;29;20394;-75
2022/04/09 01:55:46;;;;;;;4.70;2.25;;;;;;;20.23;46.62;99304.41;4894054;29;20107;-75
2022/04/09 01:58:13;;;;;;;3.13;1.88;;;;;;;20.24;46.75;99295.34;4894049;29;20064;-75
2022/04/09 02:00:44;;;;;;;4.50;2.33;;;;;;;20.23;46.66;99303.59;4894726;29;20052;-75
2022/04/09 02:03:11;;;;;;;4.30;2.35;;;;;;;20.23;46.68;99301.72;4878878;29;20389;-75
2022/04/09 02:05:38;;;;;;;6.35;2.60;;;;;;;20.23;46.74;99314.34;4895143;29;20045;-75
2022/04/09 02:08:07;;;;;;;5.15;2.40;;;;;;;20.23;46.72;99317.84;4893569;29;20044;-75
2022/04/09 02:10:37;;;;;;;4.70;1.85;;;;;;;20.22;46.77;99313.50;4878421;29;20515;-75
2022/04/09 02:13:10;;;;;;;6.05;2.28;;;;;;;20.23;46.56;99307.09;4878356;29;20056;-75
2022/04/09 02:15:39;;;;;;;2.67;1.80;;;;;;;20.23;46.73;99320.53;4878573;29;20412;-75
2022/04/09 02:18:07;;;;;;;3.67;2.03;;;;;;;20.21;46.59;99317.19;4878542;29;20056;-74
2022/04/09 02:20:35;;;;;;;3.97;2.03;;;;;;;20.22;46.57;99313.50;4895239;29;20092;-74
2022/04/09 02:23:02;;;;;;;5.30;2.13;;;;;;;20.23;46.47;99308.97;4895816;29;20048;-74
2022/04/09 02:25:31;;;;;;;5.63;2.30;;;;;;;20.23;46.73;99299.03;4895769;29;20037;-74
2022/04/09 02:27:58;;;;;;;6.88;2.55;;;;;;;20.23;46.82;99290.16;4896020;29;20546;-74
2022/04/09 02:30:26;;;;;;;4.50;2.10;;;;;;;20.23;46.71;99272.19;4896097;28;20048;-74
2022/04/09 02:32:58;;;;;;;6.22;2.17;;;;;;;20.23;46.60;99280.22;4879314;29;20055;-75
2022/04/09 02:35:31;;;;;;;5.28;2.45;;;;;;;20.23;46.79;99276.72;4896147;28;20048;-74
2022/04/09 02:37:59;;;;;;;3.58;2.40;;;;;;;20.23;46.75;99277.56;4894566;29;20063;-74
2022/04/09 02:40:30;;;;;;;3.75;2.00;;;;;;;20.23;46.69;99279.41;4893435;29;20057;-74
2022/04/09 02:42:58;;;;;;;3.90;1.92;;;;;;;20.23;46.73;99282.09;4878389;29;20048;-74
2022/04/09 02:45:28;;;;;;;3.78;1.80;;;;;;;20.24;46.82;99283.75;4864369;29;20064;-75
2022/04/09 02:47:56;;;;;;;4.22;2.15;;;;;;;20.23;46.89;99280.22;4893892;29;20056;-74
2022/04/09 02:50:27;;;;;;;2.60;1.50;;;;;;;20.23;46.69;99284.78;4894880;28;20052;-75
2022/04/09 02:52:54;;;;;;;4.60;1.80;;;;;;;20.22;46.74;99278.56;4895094;28;20057;-75
2022/04/09 02:55:24;;;;;;;5.05;2.33;;;;;;;20.23;46.56;99282.94;4897068;29;20480;-74
2022/04/09 02:57:52;;;;;;;3.05;1.58;;;;;;;20.22;46.47;99286.63;4896730;29;20059;-74
2022/04/09 03:00:24;;;;;;;6.60;2.30;;;;;;;20.23;46.69;99288.31;4896988;29;20497;-74
2022/04/09 03:02:59;;;;;;;4.22;2.20;;;;;;;20.22;46.65;99278.56;4898385;29;20400;-74
2022/04/09 03:05:36;;;;;;;4.10;1.77;;;;;;;20.23;46.61;99282.09;4896880;28;20416;-74
2022/04/09 03:08:06;;;;;;;2.72;1.58;;;;;;;20.22;46.55;99283.94;4876997;29;20059;-74
2022/04/09 03:10:33;;;;;;;3.08;1.60;;;;;;;20.22;46.63;99281.25;4896649;29;20052;-74
2022/04/09 03:13:04;;;;;;;4.97;2.03;;;;;;;20.23;46.55;99282.94;4896821;29;20057;-74
2022/04/09 03:15:31;;;;;;;4.00;1.80;;;;;;;20.21;46.61;99282.25;4898743;29;20782;-74
2022/04/09 03:18:00;;;;;;;4.72;2.33;;;;;;;20.21;46.70;99278.72;4881040;29;20063;-73
2022/04/09 03:20:30;;;;;;;5.03;2.15;;;;;;;20.22;46.58;99280.44;4896451;29;20063;-73
2022/04/09 03:22:57;;;;;;;3.10;1.45;;;;;;;20.20;46.48;99272.53;4881428;29;20052;-74
2022/04/09 03:25:48;;;;;;;4.28;1.67;;;;;;;20.21;46.44;99271.50;4881434;29;20052;-74
2022/04/09 03:28:18;;;;;;;3.00;2.17;;;;;;;20.21;46.38;99262.59;4896425;29;20068;-74
2022/04/09 03:30:46;;;;;;;7.20;2.30;;;;;;;20.21;46.26;99257.22;4881400;29;20147;-74
2022/04/09 03:33:17;;;;;;;3.10;1.90;;;;;;;20.22;46.21;99261.63;4897511;28;20523;-74
2022/04/09 03:35:48;;;;;;;5.18;1.95;;;;;;;20.19;46.35;99249.34;4895756;29;20432;-74
2022/04/09 03:38:18;;;;;;;3.72;1.80;;;;;;;20.20;46.32;99253.72;4898189;28;20063;-75
2022/04/09 03:40:54;;;;;;;3.15;1.70;;;;;;;20.19;46.43;99254.72;4896225;29;20059;-74
2022/04/09 03:43:31;;;;;;;4.88;2.40;;;;;;;20.19;46.36;99241.28;4897848;28;20105;-75
2022/04/09 03:45:59;;;;;;;3.35;1.73;;;;;;;20.19;46.43;99232.41;4896137;29;20059;-74
2022/04/09 03:48:27;;;;;;;3.88;1.98;;;;;;;20.20;46.43;99244.81;4895654;29;20057;-74
2022/04/09 03:50:55;;;;;;;3.58;1.55;;;;;;;20.20;46.52;99247.50;4897814;28;20065;-75
2022/04/09 03:53:23;;;;;;;4.30;2.00;;;;;;;20.20;46.41;99256.41;4895604;29;20064;-76
2022/04/09 03:55:58;;;;;;;4.95;2.10;;;;;;;20.19;46.12;99254.72;4895658;29;20063;-75
2022/04/09 03:58:26;;;;;;;3.00;2.15;;;;;;;20.21;46.36;99260.75;4880868;29;20412;-75
2022/04/09 04:00:57;;;;;;;5.60;1.85;;;;;;;20.21;46.55;99260.75;4895476;29;20416;-74
2022/04/09 04:03:27;;;;;;;4.45;1.65;;;;;;;20.21;46.30;99257.22;4895441;29;20053;-74
2022/04/09 04:05:56;;;;;;;3.33;1.83;;;;;;;20.20;46.38;99259.09;4895309;29;20419;-74
2022/04/09 04:08:24;;;;;;;4.07;1.73;;;;;;;20.21;46.53;99263.44;4896871;29;20053;-74
2022/04/09 04:10:52;;;;;;;5.57;2.47;;;;;;;20.22;46.47;99258.94;4895149;29;20432;-74
2022/04/09 04:13:30;;;;;;;5.38;1.83;;;;;;;20.21;46.73;99260.75;4895536;29;20057;-74
2022/04/09 04:16:01;;;;;;;5.18;1.80;;;;;;;20.21;46.70;99252.69;4880406;29;20075;-74
2022/04/09 04:18:29;;;;;;;4.18;2.00;;;;;;;20.22;46.74;99256.25;4895927;29;20053;-74
2022/04/09 04:20:59;;;;;;;4.93;1.67;;;;;;;20.22;46.71;99258.94;4896569;29;20056;-74
2022/04/09 04:23:27;;;;;;;3.55;1.58;;;;;;;20.22;46.63;99261.63;4897290;29;20421;-74
2022/04/09 04:26:03;;;;;;;4.20;1.90;;;;;;;20.22;46.73;99258.94;4865178;29;20056;-74
2022/04/09 04:28:31;;;;;;;4.68;1.52;;;;;;;20.20;46.76;99255.56;4895378;29;20520;-74
2022/04/09 04:30:58;;;;;;;4.75;1.85;;;;;;;20.21;46.51;99236.56;4896733;28;20386;-75
2022/04/09 04:33:26;;;;;;;3.30;1.90;;;;;;;20.20;46.67;99250.19;4895150;29;20052;-74
2022/04/09 04:35:56;;;;;;;3.95;1.40;;;;;;;20.18;46.74;99234.25;4876675;29;20053;-74
2022/04/09 04:38:28;;;;;;;4.82;1.77;;;;;;;20.20;46.43;99251.03;4876441;29;20049;-73
2022/04/09 04:40:59;;;;;;;4.80;1.85;;;;;;;20.18;46.37;99250.38;4860830;29;20060;-73
2022/04/09 04:43:28;;;;;;;4.55;1.85;;;;;;;20.20;46.49;99253.72;4861396;29;20057;-73
2022/04/09 04:45:56;;;;;;;4.40;1.80;;;;;;;20.20;46.34;99256.41;4876422;29;20060;-73
2022/04/09 04:48:23;;;;;;;4.47;1.73;;;;;;;20.18;46.38;99249.53;4877695;29;20420;-74
2022/04/09 04:50:52;;;;;;;3.75;1.63;;;;;;;20.18;46.30;99255.75;4876482;29;20052;-73
2022/04/09 04:53:21;;;;;;;3.35;1.70;;;;;;;20.18;46.32;99254.91;4940651;28;20057;-73
2022/04/09 04:55:54;;;;;;;6.18;2.15;;;;;;;20.18;46.35;99260.28;4876116;29;20061;-74
2022/04/09 04:58:29;;;;;;;3.47;1.55;;;;;;;20.18;46.20;99263.81;4876385;29;20068;-74
2022/04/09 05:01:02;;;;;;;2.95;1.73;;;;;;;20.17;46.23;99251.38;4860593;29;20049;-74
2022/04/09 05:03:35;;;;;;;3.33;1.77;;;;;;;20.17;46.17;99248.69;4877952;29;20049;-74
2022/04/09 05:06:24;;;;;;;3.55;1.58;;;;;;;20.17;46.24;99234.41;4876242;29;20527;-74
2022/04/09 05:08:53;;;;;;;4.95;2.03;;;;;;;20.16;46.14;99236.25;4883513;29;20105;-74
2022/04/09 05:11:44;;;;;;;4.05;1.70;;;;;;;20.16;46.03;99233.56;4895901;29;20060;-75
2022/04/09 05:14:16;;;;;;;;;;;;;;;20.16;46.06;99238.94;4894599;29;20056;-74
2022/04/09 05:16:49;;;;;;;6.03;2.20;;;;;;;20.16;45.92;99233.56;4879488;29;19930;-74
2022/04/09 05:19:16;;;;;;;4.65;1.65;;;;;;;20.15;46.05;99248.03;4895038;29;20136;-74
2022/04/09 05:21:49;;;;;;;6.43;1.90;;;;;;;20.15;45.81;99242.66;4894753;29;20052;-74
2022/04/09 05:24:20;;;;;;;5.53;1.83;;;;;;;20.15;45.77;99239.97;4894650;29;20057;-74
2022/04/09 05:26:48;;;;;;;3.15;1.80;;;;;;;20.16;45.73;99247.00;4897205;28;20079;-75
2022/04/09 05:29:16;;;;;;;3.55;1.77;;;;;;;20.16;46.00;99241.63;4879002;29;20075;-74
2022/04/09 05:31:46;;;;;;;5.03;1.73;;;;;;;20.14;45.78;99246.38;4879296;29;20040;-74
2022/04/09 05:34:15;;;;;;;4.47;1.95;;;;;;;20.15;45.66;99239.13;4902153;28;20106;-74
2022/04/09 05:36:45;;;;;;;4.22;1.90;;;;;;;20.15;45.74;99239.97;4897651;29;20062;-74
2022/04/09 05:39:12;;;;;;;6.50;2.10;;;;;;;20.14;45.54;99241.00;4912862;29;20064;-74
2022/04/09 05:41:41;;;;;;;5.03;2.10;;;;;;;20.15;45.61;99245.34;4897822;29;20420;-74
2022/04/09 05:44:10;;;;;;;5.50;2.08;;;;;;;20.14;45.57;99246.38;4881937;29;20060;-74
2022/04/09 05:46:37;;;;;;;3.90;1.80;;;;;;;20.15;45.71;99248.03;4912560;29;20055;-74
2022/04/09 05:49:09;;;;;;;2.95;1.63;;;;;;;20.15;45.71;99252.56;4897393;29;20063;-74
2022/04/09 05:51:38;;;;;;;5.80;2.10;;;;;;;20.15;45.64;99244.50;4912858;29;20052;-74
2022/04/09 05:54:06;;;;;;;4.30;1.58;;;;;;;20.15;45.63;99256.09;4896996;29;20499;-74
2022/04/09 05:56:37;;;;;;;4.60;1.83;;;;;;;20.15;45.60;99248.03;4914725;28;20499;-74
2022/04/09 05:59:05;;;;;;;2.85;1.52;;;;;;;20.14;45.58;99241.00;4912695;29;20048;-74
2022/04/09 06:01:50;;;;;;;3.88;1.67;;;;;;;20.15;45.35;99247.19;4896956;29;20423;-74
2022/04/09 06:04:20;;;;;;;3.67;1.75;;;;;;;20.16;45.45;99246.19;4897087;29;20052;-75
2022/04/09 06:06:52;;;;;;;3.72;1.95;;;;;;;20.16;45.52;99252.38;4897487;29;20056;-74
2022/04/09 06:09:23;;;;;;;5.25;1.75;;;;;;;20.15;45.41;99242.66;4894310;29;20412;-75
2022/04/09 06:11:54;;;;;;;3.15;1.35;;;;;;;20.17;45.69;99245.16;4877536;29;20400;-74
2022/04/09 06:14:27;;;;;;;3.28;1.52;;;;;;;20.16;45.31;99254.25;4875599;29;20065;-75
2022/04/09 06:16:58;;;;;;;4.80;2.22;;;;;;;20.17;45.47;99264.81;4875455;29;20057;-74
2022/04/09 06:19:29;;;;;;;4.68;1.98;;;;;;;20.16;45.28;99265.81;4875601;29;20417;-74
2022/04/09 06:21:58;;;;;;;4.57;1.98;;;;;;;20.15;45.11;99266.00;4889972;29;20080;-74
2022/04/09 06:24:26;;;;;;;5.55;1.60;;;;;;;20.16;45.30;99268.50;4875021;29;20053;-74
2022/04/09 06:26:54;;;;;;;5.03;2.13;;;;;;;20.17;45.21;99274.72;4875344;29;20053;-74
2022/04/09 06:29:22;;;;;;;3.17;1.63;;;;;;;20.16;45.34;99260.44;4890383;29;20064;-74
2022/04/09 06:31:53;;;;;;;4.15;2.25;;;;;;;20.16;45.31;99262.31;4875145;29;20049;-74
2022/04/09 06:34:21;;;;;;;5.38;1.40;;;;;;;20.16;45.49;99268.50;4890138;29;20049;-74
2022/04/09 06:36:51;;;;;;;6.53;2.15;;;;;;;20.17;45.20;99272.03;4875007;29;20064;-74
2022/04/09 06:39:20;;;;;;;2.60;1.38;;;;;;;20.16;45.35;99265.81;4875099;29;20060;-74
2022/04/09 06:41:52;;;;;;;5.38;1.83;;;;;;;20.17;45.39;99270.16;4875269;29;20537;-74
2022/04/09 06:44:33;;;;;;;5.00;1.88;;;;;;;20.18;45.34;99268.34;4890231;29;20056;-74
2022/04/09 06:47:10;;;;;;;3.65;1.80;;;;;;;20.18;45.15;99266.50;4874944;29;20068;-74
2022/04/09 06:49:44;;;;;;;3.15;1.90;;;;;;;20.17;45.32;99272.88;4874745;29;20065;-74
2022/04/09 06:52:16;;;;;;;6.03;2.03;;;;;;;20.18;44.89;99268.34;4876637;29;20064;-74
2022/04/09 06:55:11;;;;;;;2.97;1.60;;;;;;;20.17;45.03;99269.34;4869102;29;20068;-74
2022/04/09 06:57:41;;;;;;;3.83;1.80;;;;;;;20.18;45.06;99266.50;4874374;29;20061;-74
2022/04/09 07:00:16;;;;;;;3.47;1.80;;;;;;;20.20;45.22;99271.69;4874332;29;20061;-74
2022/04/09 07:02:45;;;;;;;5.82;1.83;;;;;;;20.20;45.21;99269.84;4874878;29;20049;-75
2022/04/09 07:05:13;;;;;;;5.10;2.00;;;;;;;20.22;45.13;99262.44;4875815;29;20056;-74
2022/04/09 07:07:45;;;;;;;6.70;2.10;;;;;;;20.24;45.32;99267.63;4876022;29;20092;-74
2022/04/09 07:10:13;;;;;;;5.05;1.95;;;;;;;20.24;45.10;99265.78;4874362;29;20053;-74
2022/04/09 07:12:40;;;;;;;5.07;1.92;;;;;;;20.24;45.17;99262.25;4889117;29;20049;-74
2022/04/09 07:15:09;;;;;;;3.05;1.90;;;;;;;20.25;45.40;99264.78;4890207;29;20048;-74
2022/04/09 07:17:38;;;;;;;4.70;2.10;;;;;;;20.27;45.06;99259.22;4894963;28;20057;-75
2022/04/09 07:20:07;;;;;;;4.13;1.75;;;;;;;20.28;45.18;99262.75;4894715;29;20055;-75
2022/04/09 07:22:36;;;;;;;4.55;1.92;;;;;;;20.30;45.33;99269.63;4895721;29;20049;-73
2022/04/09 07:25:07;;;;;;;4.90;2.13;;;;;;;20.32;45.29;99269.44;4895257;29;20052;-74
2022/04/09 07:27:43;;;;;;;6.40;2.33;;;;;;;20.35;44.67;99277.16;4894406;29;20048;-75
2022/04/09 07:30:16;;;;;;;6.30;2.50;;;;;;;20.38;44.60;99268.75;4894327;29;20107;-75
2022/04/09 07:32:44;;;;;;;3.33;1.80;;;;;;;20.39;44.33;99270.41;4893950;29;20060;-74
2022/04/09 07:35:12;;;;;;;6.93;2.13;;;;;;;20.41;43.96;99265.69;4907725;29;20052;-74
2022/04/09 07:37:41;;;;;;;4.97;2.20;;;;;;;20.43;43.84;99267.19;4913779;29;20059;-74
2022/04/09 07:40:13;;;;;;;5.30;2.15;;;;;;;20.46;43.47;99271.41;4915417;29;20075;-74
2022/04/09 07:42:43;;;;;;;6.93;2.28;;;;;;;20.47;43.28;99257.78;4900080;29;20048;-75
2022/04/09 07:45:15;;;;;;;4.75;2.10;;;;;;;20.49;43.26;99271.06;4899753;29;20752;-74
2022/04/09 07:47:44;;;;;;;6.70;2.83;;;;;;;20.51;42.75;99263.66;4916584;29;20048;-73
2022/04/09 07:50:13;;;;;;;4.40;2.20;;;;;;;20.53;42.58;99264.31;4916843;29;20044;-74
2022/04/09 07:52:44;;;;;;;4.88;1.83;;;;;;;20.54;42.60;99263.31;4916747;29;20053;-73
2022/04/09 07:55:17;;;;;;;5.68;2.30;;;;;;;20.58;42.44;99279.91;4898692;29;20075;-74
2022/04/09 07:57:47;;;;;;;4.60;1.95;;;;;;;20.57;42.27;99265.63;4916367;29;20071;-74
2022/04/09 08:00:15;;;;;;;7.07;2.13;;;;;;;20.59;42.24;99265.47;4916923;29;20052;-74
2022/04/09 08:02:43;;;;;;;5.50;2.17;;;;;;;20.60;42.02;99267.13;4915344;29;20055;-75
2022/04/09 08:05:10;;;;;;;7.95;2.20;;;;;;;20.60;41.98;99270.66;4899419;29;20415;-74
2022/04/09 08:07:39;;;;;;;6.45;2.40;;;;;;;20.62;42.13;99273.16;4916682;29;20052;-75
2022/04/09 08:10:08;;;;;;;4.35;2.20;;;;;;;20.62;42.03;99271.34;4916376;29;20048;-74
2022/04/09 08:12:35;;;;;;;7.47;2.17;;;;;;;20.63;41.67;99274.84;4897788;29;20056;-73
2022/04/09 08:15:04;;;;;;;5.72;2.10;;;;;;;20.63;41.97;99273.00;4896775;29;20049;-73
2022/04/09 08:17:31;;;;;;;6.47;2.30;;;;;;;20.63;41.86;99277.53;4897083;29;20048;-73
2022/04/09 08:20:00;;;;;;;6.47;2.10;;;;;;;20.64;41.91;99271.97;4896983;29;20048;-73
2022/04/09 08:22:28;;;;;;;4.20;2.10;;;;;;;20.66;41.94;99275.34;4897434;29;20143;-73
2022/04/09 08:24:56;;;;;;;7.20;2.30;;;;;;;20.65;41.59;99270.13;4880550;29;20052;-73
2022/04/09 08:27:24;;;;;;;6.43;2.10;;;;;;;20.66;41.56;99267.28;4896866;29;20063;-73
2022/04/09 08:29:52;;;;;;;6.22;2.20;;;;;;;20.67;41.69;99276.16;4897365;29;20528;-73
2022/04/09 08:32:19;;;;;;;8.63;2.38;;;;;;;20.68;41.27;99280.53;4896539;29;20519;-73
2022/04/09 08:34:46;;;;;;;4.47;1.73;;;;;;;20.69;40.63;99280.34;4906620;29;20052;-73
2022/04/09 08:37:14;;;;;;;5.00;2.20;;;;;;;20.71;41.44;99285.56;4915621;29;20107;-73
2022/04/09 08:39:41;;;;;;;10.73;2.47;;;;;;;20.69;41.06;99277.66;4915699;29;20063;-74
2022/04/09 08:42:10;;;;;;;5.50;1.98;;;;;;;20.71;40.68;99289.06;4915582;29;20048;-74
2022/04/09 08:44:37;;;;;;;9.68;2.45;;;;;;;20.72;40.92;99287.22;4915735;29;20052;-75
2022/04/09 08:47:05;;;;;;;5.38;2.17;;;;;;;20.72;41.25;99289.91;4915504;29;20044;-74
2022/04/09 08:49:37;;;;;;;6.53;2.25;;;;;;;20.73;39.17;99294.25;4915684;29;20048;-74
2022/04/09 08:52:08;;;;;;;7.80;2.42;;;;;;;20.74;40.99;99293.25;4914913;29;20071;-72
2022/04/09 08:54:40;;;;;;;7.38;1.90;;;;;;;20.76;39.72;99296.59;4915306;29;20403;-73
2022/04/09 08:57:08;;;;;;;12.13;2.80;;;;;;;20.79;39.86;99288.19;4915317;29;20048;-77
2022/04/09 08:59:36;;;;;;;7.18;2.45;;;;;;;20.79;39.96;99293.56;4915449;29;20052;-74
2022/04/09 09:02:05;;;;;;;4.68;2.00;;;;;;;20.80;39.33;99294.41;4914920;29;20051;-73
2022/04/09 09:04:33;;;;;;;7.00;2.33;;;;;;;20.81;39.62;99291.53;4898434;29;20059;-73
2022/04/09 09:07:43;;;;;;;8.55;2.70;;;;;;;20.81;39.44;99291.53;4914968;29;20403;-74
2022/04/09 09:10:16;;;;;;;6.20;2.03;;;;;;;20.81;38.78;99296.06;4918883;29;20060;-74
2022/04/09 09:12:55;;;;;;;14.40;2.95;;;;;;;20.80;38.88;99289.03;4909484;29;20049;-75
2022/04/09 09:15:23;;;;;;;6.47;1.88;;;;;;;20.81;38.25;99304.13;4895151;29;20048;-74
2022/04/09 09:17:56;;;;;;;4.95;1.95;;;;;;;20.81;38.33;99299.59;4896130;29;20044;-74
2022/04/09 09:20:24;;;;;;;;;;;;;;;20.82;38.96;99313.88;4896502;29;20048;-74
2022/04/09 09:22:53;;;;;;;6.28;1.85;;;;;;;20.81;38.29;99304.13;4879535;29;19950;-74
2022/04/09 09:25:20;;;;;;;6.53;1.90;;;;;;;20.82;38.27;99305.81;4880137;29;20059;-74
2022/04/09 09:27:57;;;;;;;5.70;2.17;;;;;;;20.82;38.54;99303.13;4895953;29;20045;-73
2022/04/09 09:30:24;;;;;;;5.55;1.77;;;;;;;20.83;37.67;99302.13;4895970;29;20056;-73
2022/04/09 09:33:07;;;;;;;4.20;1.83;;;;;;;20.85;36.59;99308.13;4896178;29;20049;-72
2022/04/09 09:35:59;;;;;;;7.32;1.80;;;;;;;20.86;36.65;99299.03;4877334;29;20049;-73
2022/04/09 09:38:29;;;;;;;3.90;1.83;;;;;;;20.87;36.87;99298.06;4876986;29;20056;-74
2022/04/09 09:40:57;;;;;;;9.07;2.38;;;;;;;20.87;36.82;99292.69;4875797;29;20049;-76
2022/04/09 09:43:26;;;;;;;6.63;2.55;;;;;;;20.87;37.26;99301.56;4877375;29;20481;-74
2022/04/09 09:45:54;;;;;;;4.10;1.75;;;;;;;20.88;37.53;99303.25;4876778;29;20053;-74
2022/04/09 09:48:25;;;;;;;6.47;2.30;;;;;;;20.89;38.14;99301.38;4877088;29;20056;-74
2022/04/09 09:50:57;;;;;;;9.18;2.38;;;;;;;20.88;37.76;99305.09;4877118;29;20049;-74
2022/04/09 09:53:36;;;;;;;5.30;2.13;;;;;;;20.89;37.47;99304.91;4876064;29;20049;-73
2022/04/09 09:56:05;;;;;;;3.67;1.80;;;;;;;20.87;37.32;99301.56;4876847;29;20048;-73
2022/04/09 09:58:32;;;;;;;4.82;1.85;;;;;;;20.86;37.11;99297.19;4877015;29;20053;-73
2022/04/09 10:01:15;;;;;;;3.88;1.80;;;;;;;20.87;37.50;99306.13;4876981;29;20417;-74
2022/04/09 10:03:43;;;;;;;5.53;1.73;;;;;;;20.87;37.05;99306.13;4877471;29;20056;-74
2022/04/09 10:06:11;;;;;;;6.10;1.80;;;;;;;20.86;37.32;99299.88;4877029;29;20446;-73
2022/04/09 10:08:39;;;;;;;6.20;1.95;;;;;;;20.86;37.33;99290.97;4876925;29;20060;-72
2022/04/09 10:11:07;;;;;;;5.30;2.13;;;;;;;20.87;37.02;99298.06;4877540;29;20504;-73
2022/04/09 10:13:36;;;;;;;5.75;1.80;;;;;;;20.87;37.11;99298.06;4880020;29;20044;-73
2022/04/09 10:16:08;;;;;;;4.57;1.60;;;;;;;20.85;37.62;99295.53;4893402;29;20052;-73
2022/04/09 10:18:36;;;;;;;4.82;1.77;;;;;;;20.85;38.30;99302.75;4879037;29;20064;-72
2022/04/09 10:21:04;;;;;;;7.00;1.73;;;;;;;20.82;37.81;99303.94;4895345;29;20500;-73
2022/04/09 10:23:33;;;;;;;4.47;2.17;;;;;;;20.82;36.72;99313.88;4895248;29;20044;-72
2022/04/09 10:26:02;;;;;;;6.97;1.67;;;;;;;20.80;36.95;99310.53;4894260;29;20412;-72
2022/04/09 10:28:31;;;;;;;6.53;1.77;;;;;;;20.80;37.25;99319.44;4894961;29;20056;-73
2022/04/09 10:30:59;;;;;;;6.75;1.98;;;;;;;20.79;37.27;99314.25;4895009;29;20052;-72
2022/04/09 10:33:33;;;;;;;8.27;2.00;;;;;;;20.80;37.17;99315.91;4878059;29;20048;-72
2022/04/09 10:36:04;;;;;;;7.90;2.00;;;;;;;20.80;38.24;99321.28;4876766;29;20408;-72
2022/04/09 10:38:33;;;;;;;5.15;2.00;;;;;;;20.79;38.48;99323.16;4876242;29;20038;-73
2022/04/09 10:41:03;;;;;;;4.20;1.60;;;;;;;20.80;38.20;99329.38;4876318;29;20647;-73
2022/04/09 10:43:38;;;;;;;5.18;1.67;;;;;;;20.80;36.36;99323.97;4876845;29;20061;-72
2022/04/09 10:46:11;;;;;;;8.93;1.95;;;;;;;20.78;35.63;99318.75;4859774;29;20481;-77
2022/04/09 10:48:41;;;;;;;3.25;1.63;;;;;;;20.77;36.02;99311.72;4876630;29;20056;-76
2022/04/09 10:51:11;;;;;;;5.10;2.30;;;;;;;20.78;36.85;99320.63;4876411;29;20086;-76
2022/04/09 10:53:59;;;;;;;5.43;1.67;;;;;;;20.78;37.08;99321.44;4876629;29;20057;-75
2022/04/09 10:56:31;;;;;;;3.13;1.38;;;;;;;20.78;35.79;99315.25;4886107;29;20059;-77
2022/04/09 10:59:06;;;;;;;6.15;2.28;;;;;;;20.77;36.17;99319.78;4895781;28;20053;-76
2022/04/09 11:01:48;;;;;;;4.10;1.40;;;;;;;20.78;35.82;99323.31;4893609;29;20052;-75
2022/04/09 11:04:29;;;;;;;6.82;1.98;;;;;;;20.78;36.04;99310.69;4893609;29;20049;-75
2022/04/09 11:07:03;;;;;;;5.20;1.92;;;;;;;20.79;36.93;99315.09;4895007;29;20036;-75
2022/04/09 11:10:04;;;;;;;6.65;1.65;;;;;;;20.80;37.49;99316.75;4877339;29;20056;-75
2022/04/09 11:12:37;;;;;;;3.15;1.42;;;;;;;20.81;37.02;99320.28;4892707;29;20048;-75
2022/04/09 11:15:07;;;;;;;6.18;1.98;;;;;;;20.81;36.92;99313.03;4895829;29;20059;-76
2022/04/09 11:17:45;;;;;;;5.35;1.60;;;;;;;20.81;37.15;99318.41;4897498;29;20060;-75
2022/04/09 11:20:24;;;;;;;5.10;2.10;;;;;;;20.82;36.52;99319.25;4898026;29;20059;-75
2022/04/09 11:22:54;;;;;;;4.03;1.65;;;;;;;20.82;36.51;99319.25;4897745;29;20711;-75
2022/04/09 11:25:22;;;;;;;3.55;1.48;;;;;;;20.82;36.60;99322.78;4898426;28;20052;-75
2022/04/09 11:27:51;;;;;;;5.45;1.65;;;;;;;20.82;36.47;99316.56;4907548;29;20048;-75
2022/04/09 11:30:20;;;;;;;5.55;1.90;;;;;;;20.82;37.01;99322.78;4897856;29;20060;-75
2022/04/09 11:32:48;;;;;;;4.88;1.67;;;;;;;20.83;36.99;99318.25;4897974;29;20063;-76
2022/04/09 11:35:17;;;;;;;5.75;1.85;;;;;;;20.82;36.88;99319.25;4914722;29;20388;-75
2022/04/09 11:37:48;;;;;;;5.38;1.52;;;;;;;20.82;36.55;99325.47;4916455;29;20040;-75
2022/04/09 11:40:17;;;;;;;3.80;1.55;;;;;;;20.82;34.97;99316.56;4916542;29;20059;-75
2022/04/09 11:42:47;;;;;;;2.85;1.20;;;;;;;20.79;33.71;99317.78;4916711;29;20052;-75
2022/04/09 11:45:18;;;;;;;4.13;1.52;;;;;;;20.79;33.36;99327.69;4916405;29;20048;-75
2022/04/09 11:47:47;;;;;;;3.08;1.60;;;;;;;20.78;32.57;99316.06;4916539;29;20044;-75
2022/04/09 11:50:16;;;;;;;4.75;1.23;;;;;;;20.77;33.01;99318.94;4916452;29;20055;-76
2022/04/09 11:52:44;;;;;;;3.63;1.35;;;;;;;20.76;32.78;99323.50;4899244;29;20067;-76